createdAt,value
2022-12-13T00:01:21.787Z,963.85
2022-12-13T00:16:24.060Z,964.06
2022-12-13T00:31:58.756Z,964.26
2022-12-13T00:47:02.591Z,964.37
2022-12-13T01:02:04.843Z,964.45
2022-12-13T01:17:07.136Z,964.58
2022-12-13T01:32:09.401Z,964.58
2022-12-13T01:47:11.618Z,964.65
2022-12-13T02:02:13.839Z,964.79
2022-12-13T02:17:16.016Z,964.94
2022-12-13T02:32:18.276Z,965.16
2022-12-13T02:47:22.153Z,965.35
2022-12-13T03:02:31.574Z,965.42
2022-12-13T03:17:34.323Z,965.55
2022-12-13T03:32:36.516Z,965.44
2022-12-13T03:47:38.733Z,965.54
2022-12-13T04:02:41.029Z,965.65
2022-12-13T04:17:43.463Z,965.67
2022-12-13T04:32:53.500Z,965.66
2022-12-13T04:47:55.695Z,965.75
2022-12-13T05:02:57.990Z,965.98
2022-12-13T05:18:00.241Z,966.15
2022-12-13T05:33:02.522Z,966.22
2022-12-13T05:48:04.718Z,966.28
2022-12-13T06:03:07.043Z,966.39
2022-12-13T06:18:09.380Z,966.48
2022-12-13T06:33:11.565Z,966.48
2022-12-13T06:48:20.067Z,966.56
2022-12-13T07:03:22.706Z,966.53
2022-12-13T07:18:24.924Z,966.53
2022-12-13T07:33:27.169Z,966.69
2022-12-13T07:48:29.442Z,966.86
2022-12-13T08:03:31.659Z,966.91
2022-12-13T08:18:33.787Z,967
2022-12-13T08:33:35.988Z,967.28
2022-12-13T08:48:44.391Z,967.22
2022-12-13T09:03:47.380Z,967.26
2022-12-13T09:18:54.918Z,967.48
2022-12-13T09:33:58.224Z,967.57
2022-12-13T09:49:01.666Z,967.47
2022-12-13T10:04:04.287Z,967.58
2022-12-13T10:19:06.493Z,967.67
2022-12-13T10:34:30.750Z,967.62
2022-12-13T10:49:32.980Z,967.52
2022-12-13T11:04:35.218Z,967.38
2022-12-13T11:19:37.420Z,967.45
2022-12-13T11:34:39.670Z,967.49
2022-12-13T11:49:41.884Z,967.38
2022-12-13T12:04:44.265Z,967.44
2022-12-13T12:19:46.478Z,967.42
2022-12-13T12:34:48.798Z,967.47
2022-12-13T12:49:51.019Z,967.46
2022-12-13T13:04:53.232Z,967.55
2022-12-13T13:20:07.854Z,967.6
2022-12-13T13:35:13.686Z,967.66
2022-12-13T13:50:15.929Z,967.71
2022-12-13T14:05:18.163Z,967.79
2022-12-13T14:20:20.406Z,967.84
2022-12-13T14:35:26.144Z,967.89
2022-12-13T14:50:29.230Z,968.03
2022-12-13T15:05:31.445Z,967.9
2022-12-13T15:20:33.735Z,967.93
2022-12-13T15:35:36.006Z,968.07
2022-12-13T15:50:41.044Z,968.23
2022-12-13T16:05:47.714Z,968.34
2022-12-13T16:20:50.019Z,968.6
2022-12-13T16:35:52.279Z,968.7
2022-12-13T16:50:57.741Z,968.9
2022-12-13T17:06:00.547Z,968.95
2022-12-13T17:21:02.727Z,969.1
2022-12-13T17:36:05.019Z,969.15
2022-12-13T17:51:07.367Z,969.26
2022-12-13T18:06:09.607Z,969.38
2022-12-13T18:21:11.857Z,969.2
2022-12-13T18:36:14.059Z,969.2
2022-12-13T18:51:16.269Z,969.16
2022-12-13T19:06:18.467Z,969.39
2022-12-13T19:21:20.696Z,969.38
2022-12-13T19:36:22.915Z,969.23
2022-12-13T19:51:25.139Z,969.19
2022-12-13T20:06:27.510Z,969.18
2022-12-13T20:21:29.847Z,969.05
2022-12-13T20:36:32.186Z,968.99
2022-12-13T20:51:34.672Z,968.89
2022-12-13T21:06:36.939Z,968.8
2022-12-13T21:21:39.237Z,968.69
2022-12-13T21:36:41.449Z,968.64
2022-12-13T21:51:47.800Z,968.75
2022-12-13T22:06:50.895Z,968.84
2022-12-13T22:21:53.123Z,968.95
2022-12-13T22:36:55.378Z,968.86
2022-12-13T22:51:57.608Z,968.93
2022-12-13T23:07:00.130Z,968.98
2022-12-13T23:22:02.327Z,968.93
2022-12-13T23:37:04.647Z,969.05
2022-12-13T23:52:06.860Z,969.26
